This is the latest recevied weather packets stored in our database for station/object ED2YAA-3. If no packets are shown the sender has not sent any weather packets the latest 10 day(s).
| Time | Temp. | Humidity | Pressure | Rain* | Wind** | Luminosity | Snow |
|---|---|---|---|---|---|---|---|
| 1777574121 | 19.44° C | 63% | 997.2 hPa | 0 mm | - | - | - |
| 1777570856 | 20° C | 61% | 996.6 hPa | 0 mm | - | - | - |
| 1777570521 | 20° C | 61% | 996.6 hPa | 0 mm | - | - | - |
| 1777567255 | 21.11° C | 60% | 996 hPa | 0 mm | - | - | - |
| 1777566921 | 21.11° C | 60% | 996 hPa | 0 mm | - | - | - |
| 1777563654 | 21.11° C | 58% | 995.4 hPa | 0 mm | - | - | - |
| 1777563320 | 21.11° C | 58% | 995.3 hPa | 0 mm | - | - | - |
| 1777560054 | 21.67° C | 58% | 995.1 hPa | 0 mm | - | - | - |
| 1777559719 | 21.67° C | 57% | 995.1 hPa | 0 mm | - | - | - |
| 1777556454 | 22.78° C | 56% | 994.9 hPa | 0 mm | - | - | - |
| 1777556121 | 22.78° C | 56% | 994.8 hPa | 0 mm | - | - | - |
| 1777552855 | 22.78° C | 55% | 994.6 hPa | 0 mm | - | - | - |
| 1777552520 | 22.78° C | 55% | 994.7 hPa | 0 mm | - | - | - |
| 1777549255 | 23.33° C | 51% | 994.7 hPa | 0 mm | - | - | - |
| 1777548920 | 23.33° C | 49% | 994.7 hPa | 0 mm | - | - | - |
| 1777545655 | 25° C | 47% | 995.1 hPa | 0 mm | - | - | - |
| 1777545320 | 25° C | 47% | 995.1 hPa | 0 mm | - | - | - |
| 1777542053 | 28.89° C | 40% | 994.9 hPa | 0 mm | - | - | - |
| 1777541720 | 30° C | 41% | 994.9 hPa | 0 mm | - | - | - |
| 1777538453 | 28.89° C | 48% | 994.7 hPa | 0 mm | - | - | - |
| 1777538121 | 28.33° C | 49% | 994.7 hPa | 0 mm | - | - | - |
| 1777534854 | 25° C | 63% | 994.4 hPa | 0 mm | - | - | - |
| 1777534519 | 25° C | 63% | 994.3 hPa | 0 mm | - | - | - |
| 1777532578 | 22.22° C | 74% | 993.9 hPa | 0 mm | - | - | - |
| 1777530919 | 15° C | 89% | 993.7 hPa | 0 mm | - | - | - |
* Rain latest hour (hover to see other rain measurements)
** Current wind speed in m/s (hover to see current wind gust speed)